Time;durP1;ratioP1;P1;durP2;ratioP2;P2;SDS_P1;SDS_P2;PMS_P1;PMS_P2;Temp;Humidity;BMP_temperature;BMP_pressure;BME280_temperature;BME280_humidity;BME280_pressure;Samples;Min_cycle;Max_cycle;Signal;HPM_P1;HPM_P2
2021/04/03 00:02:01;;;;;;;;;;;;;;;6.31;65.12;101137.94;5114551;28;20438;-68
2021/04/03 00:04:45;;;;;;;;;;;;;;;6.25;64.51;101138.31;5085191;28;19966;-69
2021/04/03 00:07:29;;;;;;;;;;;;;;;6.20;64.88;101137.78;5113827;28;20402;-70
2021/04/03 00:10:16;;;;;;;;;;;;;;;6.15;65.36;101131.06;5099635;28;20007;-70
2021/04/03 00:13:00;;;;;;;;;;;;;;;6.10;65.05;101119.91;5098983;28;19918;-70
2021/04/03 00:15:44;;;;;;;;;;;;;;;6.03;66.53;101119.44;5099209;28;19962;-70
2021/04/03 00:18:28;;;;;;;;;;;;;;;6.01;66.81;101123.97;5099191;28;19918;-70
2021/04/03 00:21:12;;;;;;;;;;;;;;;6.02;66.51;101128.31;5114804;28;19918;-70
2021/04/03 00:23:56;;;;;;;;;;;;;;;6.09;66.10;101134.09;5099095;28;19969;-70
2021/04/03 00:26:39;;;;;;;;;;;;;;;6.14;65.30;101138.16;5099013;28;20276;-70
2021/04/03 00:29:23;;;;;;;;;;;;;;;6.28;64.22;101135.47;5084926;28;20409;-70
2021/04/03 00:32:07;;;;;;;;;;;;;;;6.35;64.70;101136.78;5099288;28;19918;-70
2021/04/03 00:34:51;;;;;;;;;;;;;;;6.47;64.73;101135.19;5099411;28;20382;-70
2021/04/03 00:37:35;;;;;;;;;;;;;;;6.56;64.33;101139.91;5114995;28;19918;-67
2021/04/03 00:40:19;;;;;;;;;;;;;;;6.63;63.91;101128.81;5114225;28;20379;-69
2021/04/03 00:43:04;;;;;;;;;;;;;;;6.74;62.98;101128.97;5098920;28;19934;-70
2021/04/03 00:45:49;;;;;;;;;;;;;;;6.83;62.68;101125.72;5084500;28;20292;-70
2021/04/03 00:48:33;;;;;;;;;;;;;;;6.87;61.67;101129.84;5084427;28;19918;-70
2021/04/03 00:51:17;;;;;;;;;;;;;;;6.93;61.98;101118.84;5114115;28;20000;-70
2021/04/03 00:54:00;;;;;;;;;;;;;;;6.98;61.86;101116.75;5099105;28;19919;-70
2021/04/03 00:56:44;;;;;;;;;;;;;;;7.04;61.27;101112.84;5084294;28;20391;-70
2021/04/03 00:59:28;;;;;;;;;;;;;;;7.07;61.34;101115.31;5084604;28;20018;-69
2021/04/03 01:02:12;;;;;;;;;;;;;;;7.09;62.68;101110.75;5098407;28;19995;-70
2021/04/03 01:04:56;;;;;;;;;;;;;;;7.13;61.30;101110.44;5084517;28;19964;-70
2021/04/03 01:07:40;;;;;;;;;;;;;;;7.18;61.74;101107.47;5098452;28;19998;-70
2021/04/03 01:10:29;;;;;;;;;;;;;;;7.21;62.47;101107.25;5084444;28;19918;-70
2021/04/03 01:13:22;;;;;;;;;;;;;;;7.17;61.85;101096.00;5113999;28;19921;-70
2021/04/03 01:16:18;;;;;;;;;;;;;;;7.22;61.83;101095.69;5113972;28;20295;-69
2021/04/03 01:19:22;;;;;;;;;;;;;;;7.17;62.25;101087.22;5115685;28;19918;-70
2021/04/03 01:22:16;;;;;;;;;;;;;;;7.00;64.04;101091.00;5079032;28;20413;-70
2021/04/03 01:25:03;;;;;;;;;;;;;;;6.91;64.86;101101.34;5087967;28;20375;-70
2021/04/03 01:28:02;;;;;;;;;;;;;;;6.76;65.95;101097.91;5102433;28;19918;-70
2021/04/03 01:30:46;;;;;;;;;;;;;;;6.57;65.90;101094.75;5102109;28;19922;-70
2021/04/03 01:33:30;;;;;;;;;;;;;;;6.37;67.11;101108.41;5102056;28;19957;-70
2021/04/03 01:36:17;;;;;;;;;;;;;;;6.15;66.95;101108.06;5102278;28;19919;-70
2021/04/03 01:39:11;;;;;;;;;;;;;;;5.98;67.12;101097.72;5102289;28;20398;-70
2021/04/03 01:41:56;;;;;;;;;;;;;;;5.90;67.10;101101.75;5102208;28;19919;-70
2021/04/03 01:44:51;;;;;;;;;;;;;;;5.82;67.39;101101.38;5087726;28;19923;-70
2021/04/03 01:47:36;;;;;;;;;;;;;;;5.70;68.17;101095.03;5101789;28;19956;-70
2021/04/03 01:50:21;;;;;;;;;;;;;;;5.62;68.92;101097.28;5087450;28;19918;-70
2021/04/03 01:53:05;;;;;;;;;;;;;;;5.58;68.78;101089.63;5087563;28;19961;-70
2021/04/03 01:55:50;;;;;;;;;;;;;;;5.46;68.63;101085.91;5101890;28;19927;-70
2021/04/03 01:58:34;;;;;;;;;;;;;;;5.44;68.95;101079.03;5087489;28;20280;-70
2021/04/03 02:01:18;;;;;;;;;;;;;;;5.25;69.68;101070.50;5101715;28;19919;-70
2021/04/03 02:04:01;;;;;;;;;;;;;;;5.14;70.63;101068.47;5101668;28;20284;-70
2021/04/03 02:06:46;;;;;;;;;;;;;;;4.97;72.83;101066.00;5101676;28;20014;-69
2021/04/03 02:09:30;;;;;;;;;;;;;;;4.82;73.73;101075.75;5116745;28;19965;-70
2021/04/03 02:12:14;;;;;;;;;;;;;;;4.69;74.20;101080.88;5101219;28;19919;-70
2021/04/03 02:15:00;;;;;;;;;;;;;;;4.64;74.39;101082.06;5086902;28;19934;-69
2021/04/03 02:17:44;;;;;;;;;;;;;;;4.60;74.09;101086.72;5101741;28;19918;-70
2021/04/03 02:20:28;;;;;;;;;;;;;;;4.56;74.36;101079.88;5101441;28;19957;-70
2021/04/03 02:23:12;;;;;;;;;;;;;;;4.50;74.29;101085.53;5086796;28;19919;-70
2021/04/03 02:25:56;;;;;;;;;;;;;;;4.42;74.25;101092.16;5101031;28;19926;-70
2021/04/03 02:28:40;;;;;;;;;;;;;;;4.33;74.79;101092.66;5101089;28;19960;-70
2021/04/03 02:31:25;;;;;;;;;;;;;;;4.25;75.94;101086.97;5100263;28;19964;-70
2021/04/03 02:34:08;;;;;;;;;;;;;;;4.17;76.10;101092.66;5101517;28;19919;-70
2021/04/03 02:36:52;;;;;;;;;;;;;;;4.16;75.98;101100.69;5100830;28;19919;-68
2021/04/03 02:39:36;;;;;;;;;;;;;;;4.14;74.91;101091.97;5086844;28;19921;-70
2021/04/03 02:42:21;;;;;;;;;;;;;;;4.10;74.46;101088.69;5136060;22;19927;-67
2021/04/03 02:45:06;;;;;;;;;;;;;;;4.14;75.20;101094.59;5101005;28;20012;-67
2021/04/03 02:47:50;;;;;;;;;;;;;;;4.17;74.35;101102.38;5116110;28;20282;-67
2021/04/03 02:50:35;;;;;;;;;;;;;;;4.21;73.97;101101.25;5100943;28;19960;-67
2021/04/03 02:53:21;;;;;;;;;;;;;;;4.28;74.29;101100.00;5100537;28;19919;-67
2021/04/03 02:56:05;;;;;;;;;;;;;;;4.32;74.22;101096.25;5086772;28;19926;-67
2021/04/03 02:58:49;;;;;;;;;;;;;;;4.34;74.61;101095.22;5100820;28;19918;-67
2021/04/03 03:01:33;;;;;;;;;;;;;;;4.37;75.15;101104.78;5100342;28;19919;-66
2021/04/03 03:04:17;;;;;;;;;;;;;;;4.42;75.27;101092.16;5086431;28;20391;-66
2021/04/03 03:07:01;;;;;;;;;;;;;;;4.48;74.43;101090.00;5100625;28;20423;-66
2021/04/03 03:09:49;;;;;;;;;;;;;;;4.53;74.73;101089.75;5086222;28;20006;-66
2021/04/03 03:12:33;;;;;;;;;;;;;;;4.54;74.79;101091.47;5100690;28;19919;-67
2021/04/03 03:15:17;;;;;;;;;;;;;;;4.56;74.39;101094.88;5100055;28;19919;-66
2021/04/03 03:18:01;;;;;;;;;;;;;;;4.58;74.45;101091.19;5100351;28;20402;-67
2021/04/03 03:20:45;;;;;;;;;;;;;;;4.61;74.18;101087.53;5085994;28;19937;-66
2021/04/03 03:23:29;;;;;;;;;;;;;;;4.63;73.80;101089.16;5099825;28;20284;-67
2021/04/03 03:26:13;;;;;;;;;;;;;;;4.64;73.64;101092.63;5100172;28;19918;-66
2021/04/03 03:28:57;;;;;;;;;;;;;;;4.71;73.57;101088.72;5100091;28;20367;-67
2021/04/03 03:31:41;;;;;;;;;;;;;;;4.77;73.43;101096.31;5099766;28;19922;-66
2021/04/03 03:34:25;;;;;;;;;;;;;;;4.83;73.27;101098.56;5100040;28;19918;-66
2021/04/03 03:37:09;;;;;;;;;;;;;;;4.88;73.43;101096.53;5099696;28;20383;-66
2021/04/03 03:39:53;;;;;;;;;;;;;;;4.91;73.66;101083.16;5099928;28;20284;-66
2021/04/03 03:42:37;;;;;;;;;;;;;;;4.94;74.30;101097.88;5085213;28;19961;-66
2021/04/03 03:45:21;;;;;;;;;;;;;;;4.97;74.04;101088.91;5085374;28;20387;-68
2021/04/03 03:48:05;;;;;;;;;;;;;;;4.97;74.37;101092.44;5099674;28;19919;-66
2021/04/03 03:50:49;;;;;;;;;;;;;;;4.98;74.60;101090.63;5099457;28;19919;-65
2021/04/03 03:53:33;;;;;;;;;;;;;;;4.98;75.02;101088.84;5114807;28;19965;-66
2021/04/03 03:56:17;;;;;;;;;;;;;;;5.01;74.85;101082.53;5099344;28;20386;-67
2021/04/03 03:59:01;;;;;;;;;;;;;;;5.02;74.62;101090.34;5099275;28;19960;-67
2021/04/03 04:01:44;;;;;;;;;;;;;;;5.03;74.94;101086.75;5115153;28;20371;-68
2021/04/03 04:04:28;;;;;;;;;;;;;;;5.03;75.09;101085.94;5114879;28;19923;-68
2021/04/03 04:07:12;;;;;;;;;;;;;;;5.04;75.24;101084.97;5114561;28;19923;-67
2021/04/03 04:09:56;;;;;;;;;;;;;;;5.03;75.14;101092.03;5114825;28;19982;-67
2021/04/03 04:12:40;;;;;;;;;;;;;;;5.02;75.10;101095.63;5114449;28;19918;-68
2021/04/03 04:15:24;;;;;;;;;;;;;;;5.06;75.36;101096.31;5099337;28;19933;-68
2021/04/03 04:18:08;;;;;;;;;;;;;;;5.08;74.66;101100.56;5114765;28;20400;-67
2021/04/03 04:20:52;;;;;;;;;;;;;;;5.09;73.90;101099.63;5098959;28;19922;-67
2021/04/03 04:23:36;;;;;;;;;;;;;;;5.11;72.71;101100.38;5098778;28;19919;-67
2021/04/03 04:26:20;;;;;;;;;;;;;;;5.13;72.18;101087.09;5084621;28;19919;-67
2021/04/03 04:29:04;;;;;;;;;;;;;;;5.15;71.98;101101.91;5084852;28;20267;-67
2021/04/03 04:31:48;;;;;;;;;;;;;;;5.17;71.96;101109.75;5114490;28;20280;-67
2021/04/03 04:34:31;;;;;;;;;;;;;;;5.18;72.09;101104.38;5084855;28;20288;-66
2021/04/03 04:37:15;;;;;;;;;;;;;;;5.19;73.26;101114.00;5084763;28;19919;-68
2021/04/03 04:39:59;;;;;;;;;;;;;;;5.21;73.93;101106.84;5098708;28;19918;-68
2021/04/03 04:42:44;;;;;;;;;;;;;;;5.24;74.28;101117.22;5098600;28;19980;-68
2021/04/03 04:45:27;;;;;;;;;;;;;;;5.26;73.68;101107.44;5098918;28;20401;-67
2021/04/03 04:48:11;;;;;;;;;;;;;;;5.25;73.33;101113.63;5098874;28;19960;-68
2021/04/03 04:50:55;;;;;;;;;;;;;;;5.36;73.40;101116.50;5098598;28;19935;-67
2021/04/03 04:53:39;;;;;;;;;;;;;;;5.39;73.02;101121.63;5115579;28;19926;-68
2021/04/03 04:56:23;;;;;;;;;;;;;;;5.40;72.84;101118.03;5118829;28;19918;-67
2021/04/03 04:59:07;;;;;;;;;;;;;;;5.40;72.65;101120.66;5088443;28;20002;-67
2021/04/03 05:01:51;;;;;;;;;;;;;;;5.43;73.13;101122.28;5118299;28;19918;-67
2021/04/03 05:04:34;;;;;;;;;;;;;;;5.42;72.79;101117.94;5117999;28;19929;-67
2021/04/03 05:07:18;;;;;;;;;;;;;;;5.46;72.82;101116.81;5118337;28;19918;-67
2021/04/03 05:10:02;;;;;;;;;;;;;;;5.55;72.34;101130.31;5118082;28;20325;-67
2021/04/03 05:12:46;;;;;;;;;;;;;;;5.68;69.42;101126.00;5088075;28;20288;-66
2021/04/03 05:15:31;;;;;;;;;;;;;;;5.82;67.73;101128.69;5118171;28;19957;-67
2021/04/03 05:18:14;;;;;;;;;;;;;;;5.91;68.08;101130.78;5118131;28;19918;-68
2021/04/03 05:20:58;;;;;;;;;;;;;;;5.97;68.01;101137.50;5102325;28;19926;-67
2021/04/03 05:23:42;;;;;;;;;;;;;;;6.04;67.51;101147.59;5117605;28;19926;-67
2021/04/03 05:26:26;;;;;;;;;;;;;;;6.09;68.29;101155.25;5102425;28;19934;-67
2021/04/03 05:29:10;;;;;;;;;;;;;;;6.15;67.40;101161.03;5117934;28;19919;-67
2021/04/03 05:31:54;;;;;;;;;;;;;;;6.22;67.83;101165.00;5102244;28;20007;-67
2021/04/03 05:34:38;;;;;;;;;;;;;;;6.28;67.44;101161.94;5117522;28;20022;-67
2021/04/03 05:37:22;;;;;;;;;;;;;;;6.26;66.89;101166.50;5102287;28;19923;-68
2021/04/03 05:40:06;;;;;;;;;;;;;;;6.39;66.37;101169.25;5117967;28;19918;-66
2021/04/03 05:42:49;;;;;;;;;;;;;;;6.48;66.44;101169.50;5117376;28;19923;-66
2021/04/03 05:45:35;;;;;;;;;;;;;;;6.57;66.07;101171.56;5117218;28;19922;-68
2021/04/03 05:48:20;;;;;;;;;;;;;;;6.65;66.43;101179.88;5087495;28;19941;-67
2021/04/03 05:51:04;;;;;;;;;;;;;;;6.78;65.62;101179.97;5117477;28;19918;-68
2021/04/03 05:53:47;;;;;;;;;;;;;;;6.88;64.88;101181.91;5101561;28;19918;-66
2021/04/03 05:56:31;;;;;;;;;;;;;;;7.05;64.59;101179.03;5117402;28;19930;-66
2021/04/03 05:59:15;;;;;;;;;;;;;;;7.26;63.59;101182.06;5087278;28;19972;-67
2021/04/03 06:01:59;;;;;;;;;;;;;;;7.37;62.99;101176.91;5117139;28;20041;-66
2021/04/03 06:04:43;;;;;;;;;;;;;;;7.49;62.59;101176.91;5100618;28;19923;-65
2021/04/03 06:07:27;;;;;;;;;;;;;;;7.50;62.40;101183.94;5101385;28;19919;-66
2021/04/03 06:10:12;;;;;;;;;;;;;;;7.53;62.17;101173.13;5117236;28;20014;-66
2021/04/03 06:12:56;;;;;;;;;;;;;;;7.48;62.34;101180.53;5117041;28;19919;-66
2021/04/03 06:15:40;;;;;;;;;;;;;;;7.49;63.02;101182.22;5101575;28;19961;-67
2021/04/03 06:18:24;;;;;;;;;;;;;;;7.56;62.80;101183.53;5116713;28;19980;-67
2021/04/03 06:21:08;;;;;;;;;;;;;;;7.59;62.40;101180.66;5101332;28;19956;-67
2021/04/03 06:23:51;;;;;;;;;;;;;;;7.61;61.82;101178.75;5116713;28;19927;-66
2021/04/03 06:26:35;;;;;;;;;;;;;;;7.68;62.01;101188.88;5087055;28;20010;-66
2021/04/03 06:29:23;;;;;;;;;;;;;;;7.77;61.38;101182.06;5086864;28;19934;-66
2021/04/03 06:32:08;;;;;;;;;;;;;;;7.80;60.50;101185.38;5101253;28;19918;-66
2021/04/03 06:34:53;;;;;;;;;;;;;;;7.98;60.62;101188.56;5101139;28;19923;-68
2021/04/03 06:37:38;;;;;;;;;;;;;;;8.15;60.34;101193.56;5101122;28;19918;-66
2021/04/03 06:40:21;;;;;;;;;;;;;;;8.35;59.80;101198.38;5101115;28;20311;-66
2021/04/03 06:43:05;;;;;;;;;;;;;;;8.51;58.77;101198.97;5116145;28;19918;-66
2021/04/03 06:45:49;;;;;;;;;;;;;;;8.55;58.21;101197.81;5086585;28;19969;-67
2021/04/03 06:48:33;;;;;;;;;;;;;;;8.76;58.13;101196.28;5086307;28;19919;-66
2021/04/03 06:51:17;;;;;;;;;;;;;;;8.89;57.62;101202.41;5100542;28;20052;-67
2021/04/03 06:54:02;;;;;;;;;;;;;;;8.85;57.24;101201.75;5086473;28;20022;-68
2021/04/03 06:56:46;;;;;;;;;;;;;;;8.96;56.94;101198.34;5115454;28;20460;-67
2021/04/03 06:59:30;;;;;;;;;;;;;;;8.89;57.14;101202.41;5100702;28;19926;-67
2021/04/03 07:02:13;;;;;;;;;;;;;;;8.71;56.69;101196.59;5086071;28;20010;-67
2021/04/03 07:04:58;;;;;;;;;;;;;;;8.75;57.52;101206.03;5099704;28;19922;-66
2021/04/03 07:07:42;;;;;;;;;;;;;;;8.73;57.50;101209.75;5085809;28;19922;-68
2021/04/03 07:10:27;;;;;;;;;;;;;;;8.67;57.64;101216.38;5085607;28;20387;-67
2021/04/03 07:13:11;;;;;;;;;;;;;;;8.68;58.00;101220.72;5114881;28;19976;-65
2021/04/03 07:15:55;;;;;;;;;;;;;;;8.72;57.71;101218.69;5084824;28;19935;-66
2021/04/03 07:18:39;;;;;;;;;;;;;;;8.70;57.75;101220.63;5085435;28;19919;-66
2021/04/03 07:21:23;;;;;;;;;;;;;;;8.68;57.97;101219.91;5099682;28;20379;-65
2021/04/03 07:24:11;;;;;;;;;;;;;;;8.64;57.52;101218.44;5114936;28;19923;-68
2021/04/03 07:26:55;;;;;;;;;;;;;;;8.65;57.59;101220.13;5085561;28;19956;-67
2021/04/03 07:29:42;;;;;;;;;;;;;;;8.65;57.43;101225.44;5099471;28;19960;-67
2021/04/03 07:32:34;;;;;;;;;;;;;;;8.82;57.23;101227.72;5114596;28;20330;-68
2021/04/03 07:35:19;;;;;;;;;;;;;;;8.91;55.50;101222.59;5114817;28;19919;-68
2021/04/03 07:38:06;;;;;;;;;;;;;;;9.02;55.23;101230.66;5099174;28;20386;-68
2021/04/03 07:40:51;;;;;;;;;;;;;;;9.12;54.68;101230.81;5099522;28;19919;-66
2021/04/03 07:43:36;;;;;;;;;;;;;;;9.11;54.23;101234.44;5114222;28;19981;-68
2021/04/03 07:46:20;;;;;;;;;;;;;;;9.15;53.68;101235.94;5098941;28;20024;-68
2021/04/03 07:49:04;;;;;;;;;;;;;;;9.23;53.75;101242.38;5114439;28;20383;-65
2021/04/03 07:51:48;;;;;;;;;;;;;;;9.46;53.73;101232.72;5084754;28;19918;-65
2021/04/03 07:54:32;;;;;;;;;;;;;;;9.63;53.47;101221.63;5099246;28;20395;-67
2021/04/03 07:57:16;;;;;;;;;;;;;;;9.82;54.46;101232.59;5114377;28;20429;-64
2021/04/03 08:00:00;;;;;;;;;;;;;;;9.92;52.78;101238.94;5099081;28;19919;-68
2021/04/03 08:02:44;;;;;;;;;;;;;;;10.05;51.76;101237.91;5114414;28;19922;-65
2021/04/03 08:05:28;;;;;;;;;;;;;;;10.23;52.01;101238.31;5098523;28;19923;-67
2021/04/03 08:08:12;;;;;;;;;;;;;;;10.53;51.02;101242.13;5098667;28;20044;-67
2021/04/03 08:11:12;;;;;;;;;;;;;;;10.56;50.54;101240.03;5098644;28;19964;-67
2021/04/03 08:13:58;;;;;;;;;;;;;;;10.71;49.81;101244.16;5098688;28;19982;-66
2021/04/03 08:16:42;;;;;;;;;;;;;;;10.89;50.43;101250.72;5114134;28;20300;-67
2021/04/03 08:19:32;;;;;;;;;;;;;;;10.92;50.04;101245.13;5084331;28;19919;-66
2021/04/03 08:22:16;;;;;;;;;;;;;;;10.98;49.49;101247.28;5113823;28;19934;-68
2021/04/03 08:25:01;;;;;;;;;;;;;;;11.11;50.06;101256.03;5098583;28;19935;-65
2021/04/03 08:27:45;;;;;;;;;;;;;;;11.52;49.16;101253.50;5113468;28;20271;-67
2021/04/03 08:30:29;;;;;;;;;;;;;;;11.74;47.39;101269.47;5114046;28;19918;-66
2021/04/03 08:33:13;;;;;;;;;;;;;;;11.90;46.37;101271.69;5113861;28;19918;-67
2021/04/03 08:36:00;;;;;;;;;;;;;;;11.91;47.83;101274.25;5098821;28;19981;-67
2021/04/03 08:38:45;;;;;;;;;;;;;;;11.72;46.85;101268.75;5113809;28;19919;-65
2021/04/03 08:41:29;;;;;;;;;;;;;;;11.53;46.74;101276.53;5084113;28;19922;-67
2021/04/03 08:44:23;;;;;;;;;;;;;;;11.43;46.98;101280.09;5105462;22;19949;-69
2021/04/03 08:47:07;;;;;;;;;;;;;;;11.38;46.90;101275.13;5093053;28;20379;-69
2021/04/03 08:49:51;;;;;;;;;;;;;;;11.29;46.47;101283.88;5092286;28;20043;-68
2021/04/03 08:52:39;;;;;;;;;;;;;;;11.20;45.76;101284.63;5092299;28;19923;-69
2021/04/03 08:55:24;;;;;;;;;;;;;;;11.15;46.89;101285.97;5071701;28;19919;-69
2021/04/03 08:58:07;;;;;;;;;;;;;;;10.81;47.25;101302.97;5057854;28;19962;-68
2021/04/03 09:00:51;;;;;;;;;;;;;;;10.73;48.23;101302.72;5071875;28;19939;-69
2021/04/03 09:03:36;;;;;;;;;;;;;;;10.69;48.05;101296.78;5057360;28;19975;-69
2021/04/03 09:06:39;;;;;;;;;;;;;;;10.82;49.23;101312.66;5071698;28;19918;-69
2021/04/03 09:09:32;;;;;;;;;;;;;;;11.06;48.52;101295.56;5073176;28;19919;-69
2021/04/03 09:12:16;;;;;;;;;;;;;;;11.37;45.99;101300.13;5072830;28;20015;-68
2021/04/03 09:15:00;;;;;;;;;;;;;;;11.83;45.98;101308.78;5071821;28;19971;-68
2021/04/03 09:17:54;;;;;;;;;;;;;;;12.25;44.75;101321.22;5072814;28;19970;-69
2021/04/03 09:20:50;;;;;;;;;;;;;;;12.40;43.74;101314.56;5057309;28;20383;-69
2021/04/03 09:23:40;;;;;;;;;;;;;;;12.53;43.27;101309.88;5071489;28;20332;-68
2021/04/03 09:26:31;;;;;;;;;;;;;;;12.61;42.85;101323.41;5072776;28;20390;-68
2021/04/03 09:29:15;;;;;;;;;;;;;;;12.56;43.07;101320.31;5071628;28;20387;-68
2021/04/03 09:32:02;;;;;;;;;;;;;;;12.78;41.46;101313.97;5057204;28;20436;-68
2021/04/03 09:34:46;;;;;;;;;;;;;;;12.92;40.92;101312.59;5071337;28;19920;-67
2021/04/03 09:37:30;;;;;;;;;;;;;;;13.09;39.46;101313.84;5071339;28;20050;-69
2021/04/03 09:40:14;;;;;;;;;;;;;;;13.55;39.76;101317.63;5059208;28;19923;-68
2021/04/03 09:42:58;;;;;;;;;;;;;;;13.71;39.86;101317.09;5076526;28;19919;-68
2021/04/03 09:45:42;;;;;;;;;;;;;;;14.13;39.08;101330.13;5074894;28;19966;-69
2021/04/03 09:48:25;;;;;;;;;;;;;;;13.96;38.36;101330.81;5074864;28;19919;-68
2021/04/03 09:51:11;;;;;;;;;;;;;;;13.91;37.55;101332.22;5074917;28;19958;-68
2021/04/03 09:53:55;;;;;;;;;;;;;;;15.03;35.79;101320.66;5074655;28;20375;-68
2021/04/03 09:56:39;;;;;;;;;;;;;;;16.87;32.67;101320.72;5060624;28;19935;-69
2021/04/03 09:59:23;;;;;;;;;;;;;;;17.43;31.68;101319.16;5074697;28;19918;-69
2021/04/03 10:02:07;;;;;;;;;;;;;;;19.36;28.31;101305.50;5074874;28;19966;-67
2021/04/03 10:04:51;;;;;;;;;;;;;;;21.28;25.25;101314.81;5074671;28;19923;-69
2021/04/03 10:07:35;;;;;;;;;;;;;;;22.95;23.86;101295.06;5075516;28;19942;-69
2021/04/03 10:10:19;;;;;;;;;;;;;;;24.41;21.71;101304.19;5074623;28;20452;-69
2021/04/03 10:13:03;;;;;;;;;;;;;;;25.38;20.36;101297.00;5074620;28;20003;-69
2021/04/03 10:15:47;;;;;;;;;;;;;;;25.14;20.25;101294.94;5074855;28;19935;-68
2021/04/03 10:18:31;;;;;;;;;;;;;;;25.89;18.91;101306.03;5074577;28;20024;-69
2021/04/03 10:21:15;;;;;;;;;;;;;;;26.90;17.19;101295.63;5060430;28;19923;-69
2021/04/03 10:23:59;;;;;;;;;;;;;;;27.83;17.63;101293.28;5060038;28;19982;-70
2021/04/03 10:26:43;;;;;;;;;;;;;;;28.35;17.16;101286.22;5074551;28;19959;-70
2021/04/03 10:29:26;;;;;;;;;;;;;;;28.96;16.06;101278.44;5074550;28;19923;-71
2021/04/03 10:32:10;;;;;;;;;;;;;;;29.00;16.25;101285.94;5075230;28;19918;-69
2021/04/03 10:34:54;;;;;;;;;;;;;;;30.09;15.94;101286.63;5073928;28;19962;-70
2021/04/03 10:37:38;;;;;;;;;;;;;;;30.35;15.17;101286.00;5074327;28;20029;-70
2021/04/03 10:40:22;;;;;;;;;;;;;;;30.30;15.05;101267.50;5074063;28;19919;-70
2021/04/03 10:43:06;;;;;;;;;;;;;;;30.39;15.27;101276.16;5074842;28;20261;-69
2021/04/03 10:45:50;;;;;;;;;;;;;;;31.13;14.19;101272.97;5074200;28;19923;-70
2021/04/03 10:48:34;;;;;;;;;;;;;;;31.54;13.91;101264.19;5074388;28;19962;-70
2021/04/03 10:51:18;;;;;;;;;;;;;;;31.99;14.20;101272.97;5073029;28;20399;-69
2021/04/03 10:54:03;;;;;;;;;;;;;;;30.49;14.35;101268.06;5074850;28;20005;-68
2021/04/03 10:56:47;;;;;;;;;;;;;;;26.79;16.77;101276.38;5074957;28;20421;-69
2021/04/03 10:59:31;;;;;;;;;;;;;;;26.16;17.56;101285.69;5073955;28;20392;-70
2021/04/03 11:02:15;;;;;;;;;;;;;;;27.22;17.63;101278.84;5073735;28;19981;-68
2021/04/03 11:04:59;;;;;;;;;;;;;;;27.97;16.92;101291.19;5073590;28;19966;-70
2021/04/03 11:07:43;;;;;;;;;;;;;;;28.70;16.00;101279.72;5059248;28;19962;-69
2021/04/03 11:10:27;;;;;;;;;;;;;;;29.12;16.43;101270.28;5073458;28;19977;-68
2021/04/03 11:13:10;;;;;;;;;;;;;;;29.76;15.05;101270.03;5074265;28;19935;-70
2021/04/03 11:15:54;;;;;;;;;;;;;;;30.80;14.93;101270.25;5074539;28;19978;-70
2021/04/03 11:18:38;;;;;;;;;;;;;;;30.18;14.14;101274.16;5074483;28;19919;-69
2021/04/03 11:21:22;;;;;;;;;;;;;;;30.56;13.79;101266.00;5073385;28;19958;-69
2021/04/03 11:24:06;;;;;;;;;;;;;;;30.95;13.58;101259.50;5073230;28;19981;-71
2021/04/03 11:26:50;;;;;;;;;;;;;;;31.56;12.75;101256.47;5074251;28;19919;-70
2021/04/03 11:29:34;;;;;;;;;;;;;;;30.61;13.93;101246.84;5073140;28;19923;-69
2021/04/03 11:32:18;;;;;;;;;;;;;;;30.57;13.85;101256.66;5072855;28;19938;-70
2021/04/03 11:35:02;;;;;;;;;;;;;;;28.94;14.58;101247.66;5073716;28;19927;-71
2021/04/03 11:37:46;;;;;;;;;;;;;;;29.69;14.28;101255.56;5072987;28;19923;-71
2021/04/03 11:40:30;;;;;;;;;;;;;;;30.61;13.73;101247.69;5073985;28;19919;-71
2021/04/03 11:43:14;;;;;;;;;;;;;;;29.61;14.43;101261.50;5072786;28;20012;-69
2021/04/03 11:45:58;;;;;;;;;;;;;;;31.16;13.56;101244.94;5073688;28;19923;-69
2021/04/03 11:48:41;;;;;;;;;;;;;;;30.94;13.39;101241.31;5072707;28;20021;-69
2021/04/03 11:51:25;;;;;;;;;;;;;;;31.01;13.85;101241.94;5073758;28;20331;-71
2021/04/03 11:54:09;;;;;;;;;;;;;;;31.23;13.58;101240.09;5058637;28;20276;-71
2021/04/03 11:56:53;;;;;;;;;;;;;;;31.62;13.45;101238.88;5072697;28;20049;-71
2021/04/03 11:59:37;;;;;;;;;;;;;;;31.63;13.51;101240.56;5073705;28;19919;-71
2021/04/03 12:02:21;;;;;;;;;;;;;;;31.90;12.77;101242.28;5072373;28;19935;-71
2021/04/03 12:05:05;;;;;;;;;;;;;;;30.81;13.66;101230.63;5058447;28;20433;-71
2021/04/03 12:07:49;;;;;;;;;;;;;;;30.27;13.29;101239.66;5072504;28;19969;-70
2021/04/03 12:10:36;;;;;;;;;;;;;;;30.38;13.77;101231.31;5058066;28;19927;-69
2021/04/03 12:13:20;;;;;;;;;;;;;;;31.42;12.73;101222.09;5072341;28;19919;-71
2021/04/03 12:16:04;;;;;;;;;;;;;;;32.18;12.83;101210.81;5058401;28;20307;-71
2021/04/03 12:18:50;;;;;;;;;;;;;;;31.89;13.12;101223.22;5073443;28;20383;-71
2021/04/03 12:21:34;;;;;;;;;;;;;;;31.77;12.37;101219.81;5073468;28;19935;-71
2021/04/03 12:24:18;;;;;;;;;;;;;;;30.36;12.90;101218.88;5057838;28;19924;-71
2021/04/03 12:27:02;;;;;;;;;;;;;;;30.54;12.92;101213.13;5073460;28;20015;-70
2021/04/03 12:29:46;;;;;;;;;;;;;;;29.80;13.82;101210.75;5072268;28;19919;-70
2021/04/03 12:32:30;;;;;;;;;;;;;;;29.30;13.85;101209.72;5073343;28;20284;-70
2021/04/03 12:35:14;;;;;;;;;;;;;;;29.05;14.25;101217.41;5057728;28;19919;-70
2021/04/03 12:37:58;;;;;;;;;;;;;;;28.97;13.48;101204.03;5072977;28;20315;-71
2021/04/03 12:40:42;;;;;;;;;;;;;;;29.66;14.07;101201.09;5072177;28;19961;-71
2021/04/03 12:43:26;;;;;;;;;;;;;;;29.69;13.87;101203.34;5072168;28;19919;-71
2021/04/03 12:46:10;;;;;;;;;;;;;;;30.42;13.19;101188.44;5072195;28;20003;-71
2021/04/03 12:48:53;;;;;;;;;;;;;;;30.31;13.36;101186.63;5058136;28;19919;-70
2021/04/03 12:51:37;;;;;;;;;;;;;;;28.86;14.57;101195.81;5071886;28;19919;-70
2021/04/03 12:54:21;;;;;;;;;;;;;;;26.75;15.96;101198.53;5057526;28;19962;-69
2021/04/03 12:57:05;;;;;;;;;;;;;;;25.61;17.25;101205.31;5071920;28;19967;-70
2021/04/03 12:59:49;;;;;;;;;;;;;;;25.84;17.38;101202.03;5072290;28;19935;-70
2021/04/03 13:02:33;;;;;;;;;;;;;;;25.94;16.90;101199.69;5057761;28;20376;-69
2021/04/03 13:05:17;;;;;;;;;;;;;;;25.21;17.25;101186.63;5072742;28;19939;-69
2021/04/03 13:08:01;;;;;;;;;;;;;;;26.77;16.67;101190.94;5071896;28;19935;-70
2021/04/03 13:10:45;;;;;;;;;;;;;;;27.37;15.71;101180.75;5072686;28;19923;-70
2021/04/03 13:13:29;;;;;;;;;;;;;;;28.72;15.33;101175.16;5057538;28;19919;-69
2021/04/03 13:16:13;;;;;;;;;;;;;;;29.49;14.07;101177.41;5075383;28;19923;-70
2021/04/03 13:18:57;;;;;;;;;;;;;;;28.86;14.18;101180.16;5061443;28;19989;-70
2021/04/03 13:21:40;;;;;;;;;;;;;;;27.21;14.64;101181.38;5075779;28;20343;-69
2021/04/03 13:24:24;;;;;;;;;;;;;;;27.19;15.19;101180.75;5076510;28;19927;-70
2021/04/03 13:27:08;;;;;;;;;;;;;;;27.65;14.64;101169.16;5076333;28;19961;-69
2021/04/03 13:29:55;;;;;;;;;;;;;;;27.95;14.99;101170.00;5075304;28;20011;-69
2021/04/03 13:32:39;;;;;;;;;;;;;;;27.76;15.13;101158.28;5076557;28;19965;-70
2021/04/03 13:35:23;;;;;;;;;;;;;;;26.32;15.75;101164.84;5075193;28;19957;-70
2021/04/03 13:38:06;;;;;;;;;;;;;;;25.24;16.45;101172.56;5060967;28;19978;-68
2021/04/03 13:40:50;;;;;;;;;;;;;;;26.65;16.23;101155.28;5075084;28;19954;-69
2021/04/03 13:43:34;;;;;;;;;;;;;;;26.05;17.48;101163.44;5075114;28;19934;-70
2021/04/03 13:46:18;;;;;;;;;;;;;;;26.92;15.82;101150.34;5076282;28;19924;-70
2021/04/03 13:49:02;;;;;;;;;;;;;;;26.31;15.51;101152.25;5074987;28;20034;-70
2021/04/03 13:51:47;;;;;;;;;;;;;;;27.59;14.65;101153.66;5076003;28;19920;-70
2021/04/03 13:54:31;;;;;;;;;;;;;;;27.41;15.12;101145.50;5060985;28;20388;-70
2021/04/03 13:57:15;;;;;;;;;;;;;;;28.53;14.28;101147.03;5075010;28;20343;-70
2021/04/03 13:59:59;;;;;;;;;;;;;;;27.88;14.26;101142.69;5060793;28;19918;-70
2021/04/03 14:02:43;;;;;;;;;;;;;;;28.07;14.13;101135.22;5075989;28;19958;-70
2021/04/03 14:05:27;;;;;;;;;;;;;;;26.77;14.75;101139.78;5074642;28;20017;-70
2021/04/03 14:08:11;;;;;;;;;;;;;;;25.54;15.95;101138.97;5075915;28;20058;-69
2021/04/03 14:10:54;;;;;;;;;;;;;;;25.33;15.78;101141.22;5075012;28;19930;-69
2021/04/03 14:13:38;;;;;;;;;;;;;;;25.91;15.46;101140.84;5075696;28;19919;-69